sensor_id;sensor_type;location;lat;lon;timestamp;P1;durP1;ratioP1;P2;durP2;ratioP2
56265;SDS011;42174;50.936;6.858;2024-01-07T00:02:28;13.60;;;6.47;;
56265;SDS011;42174;50.936;6.858;2024-01-07T00:05:12;18.90;;;8.18;;
56265;SDS011;42174;50.936;6.858;2024-01-07T00:07:56;20.33;;;9.40;;
56265;SDS011;42174;50.936;6.858;2024-01-07T00:10:40;23.85;;;8.52;;
56265;SDS011;42174;50.936;6.858;2024-01-07T00:13:24;12.52;;;6.75;;
56265;SDS011;42174;50.936;6.858;2024-01-07T00:16:08;15.20;;;6.03;;
56265;SDS011;42174;50.936;6.858;2024-01-07T00:18:52;19.33;;;9.68;;
56265;SDS011;42174;50.936;6.858;2024-01-07T00:21:36;10.27;;;5.18;;
56265;SDS011;42174;50.936;6.858;2024-01-07T00:24:20;19.80;;;7.32;;
56265;SDS011;42174;50.936;6.858;2024-01-07T00:27:04;15.55;;;6.65;;
56265;SDS011;42174;50.936;6.858;2024-01-07T00:29:48;15.35;;;5.22;;
56265;SDS011;42174;50.936;6.858;2024-01-07T00:32:32;20.05;;;7.45;;
56265;SDS011;42174;50.936;6.858;2024-01-07T00:35:16;14.20;;;5.60;;
56265;SDS011;42174;50.936;6.858;2024-01-07T00:38:00;19.40;;;8.13;;
56265;SDS011;42174;50.936;6.858;2024-01-07T00:40:44;19.95;;;7.15;;
56265;SDS011;42174;50.936;6.858;2024-01-07T00:43:28;20.88;;;8.90;;
56265;SDS011;42174;50.936;6.858;2024-01-07T00:46:12;12.02;;;6.95;;
56265;SDS011;42174;50.936;6.858;2024-01-07T00:48:56;18.27;;;7.47;;
56265;SDS011;42174;50.936;6.858;2024-01-07T00:51:39;16.27;;;7.32;;
56265;SDS011;42174;50.936;6.858;2024-01-07T00:54:23;12.75;;;7.20;;
56265;SDS011;42174;50.936;6.858;2024-01-07T00:57:09;17.25;;;7.60;;
56265;SDS011;42174;50.936;6.858;2024-01-07T00:59:53;14.10;;;5.18;;
56265;SDS011;42174;50.936;6.858;2024-01-07T01:02:37;20.15;;;7.00;;
56265;SDS011;42174;50.936;6.858;2024-01-07T01:05:21;19.00;;;6.22;;
56265;SDS011;42174;50.936;6.858;2024-01-07T01:08:05;11.82;;;5.38;;
56265;SDS011;42174;50.936;6.858;2024-01-07T01:10:49;15.68;;;6.22;;
56265;SDS011;42174;50.936;6.858;2024-01-07T01:13:33;9.55;;;5.18;;
56265;SDS011;42174;50.936;6.858;2024-01-07T01:16:17;15.60;;;6.85;;
56265;SDS011;42174;50.936;6.858;2024-01-07T01:19:01;11.60;;;6.18;;
56265;SDS011;42174;50.936;6.858;2024-01-07T01:21:45;13.52;;;4.45;;
56265;SDS011;42174;50.936;6.858;2024-01-07T01:24:28;11.60;;;5.03;;
56265;SDS011;42174;50.936;6.858;2024-01-07T01:27:13;9.98;;;4.35;;
56265;SDS011;42174;50.936;6.858;2024-01-07T01:29:57;8.82;;;4.43;;
56265;SDS011;42174;50.936;6.858;2024-01-07T01:32:41;10.98;;;5.03;;
56265;SDS011;42174;50.936;6.858;2024-01-07T01:35:25;12.38;;;4.63;;
56265;SDS011;42174;50.936;6.858;2024-01-07T01:38:09;4.95;;;3.45;;
56265;SDS011;42174;50.936;6.858;2024-01-07T01:40:53;6.22;;;3.88;;
56265;SDS011;42174;50.936;6.858;2024-01-07T01:43:37;6.95;;;4.07;;
56265;SDS011;42174;50.936;6.858;2024-01-07T01:46:21;5.22;;;2.97;;
56265;SDS011;42174;50.936;6.858;2024-01-07T01:49:06;9.18;;;3.70;;
56265;SDS011;42174;50.936;6.858;2024-01-07T01:51:50;8.10;;;3.83;;
56265;SDS011;42174;50.936;6.858;2024-01-07T01:54:35;9.02;;;4.15;;
56265;SDS011;42174;50.936;6.858;2024-01-07T01:57:19;16.08;;;5.00;;
56265;SDS011;42174;50.936;6.858;2024-01-07T02:00:04;5.85;;;3.45;;
56265;SDS011;42174;50.936;6.858;2024-01-07T02:02:48;9.77;;;3.95;;
56265;SDS011;42174;50.936;6.858;2024-01-07T02:05:32;6.13;;;2.72;;
56265;SDS011;42174;50.936;6.858;2024-01-07T02:08:19;7.80;;;3.47;;
56265;SDS011;42174;50.936;6.858;2024-01-07T02:11:19;5.82;;;3.03;;
56265;SDS011;42174;50.936;6.858;2024-01-07T02:14:03;8.05;;;4.80;;
56265;SDS011;42174;50.936;6.858;2024-01-07T02:16:47;7.93;;;3.53;;
56265;SDS011;42174;50.936;6.858;2024-01-07T02:19:31;4.53;;;2.90;;
56265;SDS011;42174;50.936;6.858;2024-01-07T02:22:15;6.47;;;3.70;;
56265;SDS011;42174;50.936;6.858;2024-01-07T02:24:59;6.47;;;2.65;;
56265;SDS011;42174;50.936;6.858;2024-01-07T02:27:43;2.83;;;1.88;;
56265;SDS011;42174;50.936;6.858;2024-01-07T02:30:26;7.78;;;3.55;;
56265;SDS011;42174;50.936;6.858;2024-01-07T02:33:10;6.13;;;2.58;;
56265;SDS011;42174;50.936;6.858;2024-01-07T02:35:54;9.10;;;4.28;;
56265;SDS011;42174;50.936;6.858;2024-01-07T02:38:38;6.90;;;3.65;;
56265;SDS011;42174;50.936;6.858;2024-01-07T02:41:22;5.72;;;3.28;;
56265;SDS011;42174;50.936;6.858;2024-01-07T02:44:09;3.85;;;3.17;;
56265;SDS011;42174;50.936;6.858;2024-01-07T02:46:53;5.18;;;3.67;;
56265;SDS011;42174;50.936;6.858;2024-01-07T02:49:36;5.68;;;4.20;;
56265;SDS011;42174;50.936;6.858;2024-01-07T02:52:21;7.35;;;2.92;;
56265;SDS011;42174;50.936;6.858;2024-01-07T02:55:04;4.55;;;2.83;;
56265;SDS011;42174;50.936;6.858;2024-01-07T02:57:48;4.57;;;3.35;;
56265;SDS011;42174;50.936;6.858;2024-01-07T03:00:32;6.95;;;2.42;;
56265;SDS011;42174;50.936;6.858;2024-01-07T03:03:17;7.47;;;3.22;;
56265;SDS011;42174;50.936;6.858;2024-01-07T03:06:00;5.15;;;4.60;;
56265;SDS011;42174;50.936;6.858;2024-01-07T03:08:44;6.32;;;3.33;;
56265;SDS011;42174;50.936;6.858;2024-01-07T03:11:28;9.88;;;3.92;;
56265;SDS011;42174;50.936;6.858;2024-01-07T03:14:13;6.30;;;3.53;;
56265;SDS011;42174;50.936;6.858;2024-01-07T03:16:57;6.32;;;4.35;;
56265;SDS011;42174;50.936;6.858;2024-01-07T03:19:41;3.58;;;3.28;;
56265;SDS011;42174;50.936;6.858;2024-01-07T03:22:25;5.88;;;2.88;;
56265;SDS011;42174;50.936;6.858;2024-01-07T03:25:09;5.78;;;2.72;;
56265;SDS011;42174;50.936;6.858;2024-01-07T03:27:53;6.93;;;3.47;;
56265;SDS011;42174;50.936;6.858;2024-01-07T03:30:36;6.38;;;3.05;;
56265;SDS011;42174;50.936;6.858;2024-01-07T03:33:20;4.35;;;2.53;;
56265;SDS011;42174;50.936;6.858;2024-01-07T03:36:08;4.38;;;3.15;;
56265;SDS011;42174;50.936;6.858;2024-01-07T03:38:52;8.10;;;4.60;;
56265;SDS011;42174;50.936;6.858;2024-01-07T03:41:37;5.00;;;3.70;;
56265;SDS011;42174;50.936;6.858;2024-01-07T03:44:21;8.77;;;4.47;;
56265;SDS011;42174;50.936;6.858;2024-01-07T03:47:06;6.78;;;3.17;;
56265;SDS011;42174;50.936;6.858;2024-01-07T03:49:50;7.07;;;3.13;;
56265;SDS011;42174;50.936;6.858;2024-01-07T03:52:34;9.73;;;4.13;;
56265;SDS011;42174;50.936;6.858;2024-01-07T03:55:18;6.15;;;3.75;;
56265;SDS011;42174;50.936;6.858;2024-01-07T03:58:02;9.35;;;3.80;;
56265;SDS011;42174;50.936;6.858;2024-01-07T04:00:46;11.77;;;4.32;;
56265;SDS011;42174;50.936;6.858;2024-01-07T04:03:30;4.40;;;2.63;;
56265;SDS011;42174;50.936;6.858;2024-01-07T04:06:14;6.45;;;3.15;;
56265;SDS011;42174;50.936;6.858;2024-01-07T04:08:58;9.20;;;3.40;;
56265;SDS011;42174;50.936;6.858;2024-01-07T04:11:42;11.65;;;4.55;;
56265;SDS011;42174;50.936;6.858;2024-01-07T04:14:26;5.70;;;5.07;;
56265;SDS011;42174;50.936;6.858;2024-01-07T04:17:11;7.22;;;4.10;;
56265;SDS011;42174;50.936;6.858;2024-01-07T04:19:55;11.52;;;5.45;;
56265;SDS011;42174;50.936;6.858;2024-01-07T04:22:39;7.35;;;5.40;;
56265;SDS011;42174;50.936;6.858;2024-01-07T04:25:23;12.60;;;4.45;;
56265;SDS011;42174;50.936;6.858;2024-01-07T04:28:07;11.85;;;5.20;;
56265;SDS011;42174;50.936;6.858;2024-01-07T04:30:51;12.13;;;5.63;;
56265;SDS011;42174;50.936;6.858;2024-01-07T04:33:35;5.00;;;3.53;;
56265;SDS011;42174;50.936;6.858;2024-01-07T04:36:19;8.93;;;3.92;;
56265;SDS011;42174;50.936;6.858;2024-01-07T04:39:03;10.07;;;4.93;;
56265;SDS011;42174;50.936;6.858;2024-01-07T04:41:47;8.27;;;3.97;;
56265;SDS011;42174;50.936;6.858;2024-01-07T04:44:31;10.60;;;6.03;;
56265;SDS011;42174;50.936;6.858;2024-01-07T04:47:31;9.15;;;4.20;;
56265;SDS011;42174;50.936;6.858;2024-01-07T04:50:15;12.30;;;6.00;;
56265;SDS011;42174;50.936;6.858;2024-01-07T04:53:03;9.77;;;5.72;;
56265;SDS011;42174;50.936;6.858;2024-01-07T04:55:47;9.32;;;5.85;;
56265;SDS011;42174;50.936;6.858;2024-01-07T04:58:31;9.85;;;4.45;;
56265;SDS011;42174;50.936;6.858;2024-01-07T05:01:15;7.20;;;4.70;;
56265;SDS011;42174;50.936;6.858;2024-01-07T05:03:59;15.70;;;6.43;;
56265;SDS011;42174;50.936;6.858;2024-01-07T05:06:44;9.35;;;4.00;;
56265;SDS011;42174;50.936;6.858;2024-01-07T05:09:27;7.55;;;4.13;;
56265;SDS011;42174;50.936;6.858;2024-01-07T05:12:11;11.10;;;5.07;;
56265;SDS011;42174;50.936;6.858;2024-01-07T05:14:55;9.55;;;5.03;;
56265;SDS011;42174;50.936;6.858;2024-01-07T05:17:39;7.95;;;5.45;;
56265;SDS011;42174;50.936;6.858;2024-01-07T05:20:23;8.40;;;5.38;;
56265;SDS011;42174;50.936;6.858;2024-01-07T05:23:07;10.05;;;3.92;;
56265;SDS011;42174;50.936;6.858;2024-01-07T05:25:51;16.60;;;6.13;;
56265;SDS011;42174;50.936;6.858;2024-01-07T05:28:36;7.78;;;5.45;;
56265;SDS011;42174;50.936;6.858;2024-01-07T05:31:19;11.45;;;5.22;;
56265;SDS011;42174;50.936;6.858;2024-01-07T05:34:03;6.78;;;3.97;;
56265;SDS011;42174;50.936;6.858;2024-01-07T05:36:47;11.43;;;4.38;;
56265;SDS011;42174;50.936;6.858;2024-01-07T05:39:31;7.90;;;4.57;;
56265;SDS011;42174;50.936;6.858;2024-01-07T05:42:15;13.88;;;5.85;;
56265;SDS011;42174;50.936;6.858;2024-01-07T05:44:59;8.45;;;4.35;;
56265;SDS011;42174;50.936;6.858;2024-01-07T05:47:43;7.70;;;4.20;;
56265;SDS011;42174;50.936;6.858;2024-01-07T05:50:27;11.25;;;4.82;;
56265;SDS011;42174;50.936;6.858;2024-01-07T05:53:11;6.15;;;3.25;;
56265;SDS011;42174;50.936;6.858;2024-01-07T05:55:55;6.68;;;3.85;;
56265;SDS011;42174;50.936;6.858;2024-01-07T05:58:39;5.72;;;3.83;;
56265;SDS011;42174;50.936;6.858;2024-01-07T06:01:23;9.43;;;4.97;;
56265;SDS011;42174;50.936;6.858;2024-01-07T06:04:06;13.32;;;5.47;;
56265;SDS011;42174;50.936;6.858;2024-01-07T06:06:50;8.23;;;3.58;;
56265;SDS011;42174;50.936;6.858;2024-01-07T06:09:34;7.90;;;5.45;;
56265;SDS011;42174;50.936;6.858;2024-01-07T06:12:18;11.02;;;6.50;;
56265;SDS011;42174;50.936;6.858;2024-01-07T06:15:02;9.32;;;4.30;;
56265;SDS011;42174;50.936;6.858;2024-01-07T06:17:46;9.32;;;4.65;;
56265;SDS011;42174;50.936;6.858;2024-01-07T06:20:32;8.95;;;4.07;;
56265;SDS011;42174;50.936;6.858;2024-01-07T06:23:16;8.52;;;4.10;;
56265;SDS011;42174;50.936;6.858;2024-01-07T06:26:02;7.97;;;5.65;;
56265;SDS011;42174;50.936;6.858;2024-01-07T06:28:46;9.65;;;4.78;;
56265;SDS011;42174;50.936;6.858;2024-01-07T06:31:30;8.52;;;4.60;;
56265;SDS011;42174;50.936;6.858;2024-01-07T06:34:14;9.13;;;4.93;;
56265;SDS011;42174;50.936;6.858;2024-01-07T06:36:58;13.10;;;5.90;;
56265;SDS011;42174;50.936;6.858;2024-01-07T06:39:42;7.75;;;4.32;;
56265;SDS011;42174;50.936;6.858;2024-01-07T06:42:26;10.98;;;7.20;;
56265;SDS011;42174;50.936;6.858;2024-01-07T06:45:10;9.63;;;5.60;;
56265;SDS011;42174;50.936;6.858;2024-01-07T06:47:54;10.90;;;3.97;;
56265;SDS011;42174;50.936;6.858;2024-01-07T06:50:38;8.90;;;4.70;;
56265;SDS011;42174;50.936;6.858;2024-01-07T06:53:22;6.60;;;4.68;;
56265;SDS011;42174;50.936;6.858;2024-01-07T06:56:06;7.13;;;4.10;;
56265;SDS011;42174;50.936;6.858;2024-01-07T06:58:50;7.20;;;5.35;;
56265;SDS011;42174;50.936;6.858;2024-01-07T07:01:34;9.10;;;4.40;;
56265;SDS011;42174;50.936;6.858;2024-01-07T07:04:18;7.90;;;4.30;;
56265;SDS011;42174;50.936;6.858;2024-01-07T07:07:02;7.43;;;4.88;;
56265;SDS011;42174;50.936;6.858;2024-01-07T07:09:46;13.18;;;5.50;;
56265;SDS011;42174;50.936;6.858;2024-01-07T07:12:30;13.68;;;5.95;;
56265;SDS011;42174;50.936;6.858;2024-01-07T07:15:14;10.40;;;4.60;;
56265;SDS011;42174;50.936;6.858;2024-01-07T07:17:58;9.30;;;4.57;;
56265;SDS011;42174;50.936;6.858;2024-01-07T07:20:42;9.57;;;4.00;;
56265;SDS011;42174;50.936;6.858;2024-01-07T07:23:26;10.35;;;5.13;;
56265;SDS011;42174;50.936;6.858;2024-01-07T07:26:10;8.52;;;4.43;;
56265;SDS011;42174;50.936;6.858;2024-01-07T07:28:54;9.63;;;5.82;;
56265;SDS011;42174;50.936;6.858;2024-01-07T07:31:38;13.40;;;5.55;;
56265;SDS011;42174;50.936;6.858;2024-01-07T07:34:22;12.43;;;4.65;;
56265;SDS011;42174;50.936;6.858;2024-01-07T07:37:06;8.88;;;6.30;;
56265;SDS011;42174;50.936;6.858;2024-01-07T07:39:50;7.15;;;4.30;;
56265;SDS011;42174;50.936;6.858;2024-01-07T07:42:34;12.52;;;4.93;;
56265;SDS011;42174;50.936;6.858;2024-01-07T07:45:18;11.68;;;4.60;;
56265;SDS011;42174;50.936;6.858;2024-01-07T07:48:01;11.02;;;5.40;;
56265;SDS011;42174;50.936;6.858;2024-01-07T07:50:45;6.38;;;4.05;;
56265;SDS011;42174;50.936;6.858;2024-01-07T07:53:29;11.02;;;5.30;;
56265;SDS011;42174;50.936;6.858;2024-01-07T07:56:13;6.80;;;3.88;;
56265;SDS011;42174;50.936;6.858;2024-01-07T07:58:57;7.47;;;4.10;;
56265;SDS011;42174;50.936;6.858;2024-01-07T08:01:41;8.55;;;4.60;;
56265;SDS011;42174;50.936;6.858;2024-01-07T08:04:25;7.80;;;3.08;;
56265;SDS011;42174;50.936;6.858;2024-01-07T08:07:10;8.10;;;5.03;;
56265;SDS011;42174;50.936;6.858;2024-01-07T08:09:54;6.25;;;4.57;;
56265;SDS011;42174;50.936;6.858;2024-01-07T08:12:40;10.23;;;5.18;;
56265;SDS011;42174;50.936;6.858;2024-01-07T08:15:24;11.43;;;4.28;;
56265;SDS011;42174;50.936;6.858;2024-01-07T08:18:09;4.55;;;3.83;;
56265;SDS011;42174;50.936;6.858;2024-01-07T08:20:53;4.05;;;3.58;;
56265;SDS011;42174;50.936;6.858;2024-01-07T08:23:37;3.33;;;2.65;;
56265;SDS011;42174;50.936;6.858;2024-01-07T08:26:21;5.45;;;3.88;;
56265;SDS011;42174;50.936;6.858;2024-01-07T08:29:05;6.68;;;3.17;;
56265;SDS011;42174;50.936;6.858;2024-01-07T08:31:49;7.72;;;4.03;;
56265;SDS011;42174;50.936;6.858;2024-01-07T08:34:32;6.18;;;3.60;;
56265;SDS011;42174;50.936;6.858;2024-01-07T08:37:16;7.88;;;3.42;;
56265;SDS011;42174;50.936;6.858;2024-01-07T08:40:00;4.82;;;2.60;;
56265;SDS011;42174;50.936;6.858;2024-01-07T08:42:44;7.20;;;4.45;;
56265;SDS011;42174;50.936;6.858;2024-01-07T08:45:28;9.30;;;4.60;;
56265;SDS011;42174;50.936;6.858;2024-01-07T08:48:12;5.80;;;3.30;;
56265;SDS011;42174;50.936;6.858;2024-01-07T08:50:56;8.23;;;3.92;;
56265;SDS011;42174;50.936;6.858;2024-01-07T08:53:41;6.32;;;4.40;;
56265;SDS011;42174;50.936;6.858;2024-01-07T08:56:25;5.28;;;4.10;;
56265;SDS011;42174;50.936;6.858;2024-01-07T08:59:09;5.32;;;4.47;;
56265;SDS011;42174;50.936;6.858;2024-01-07T09:01:52;6.38;;;3.75;;
56265;SDS011;42174;50.936;6.858;2024-01-07T09:04:36;7.05;;;4.65;;
56265;SDS011;42174;50.936;6.858;2024-01-07T09:07:21;11.27;;;3.40;;
56265;SDS011;42174;50.936;6.858;2024-01-07T09:10:05;10.15;;;4.53;;
56265;SDS011;42174;50.936;6.858;2024-01-07T09:12:54;5.95;;;3.70;;
56265;SDS011;42174;50.936;6.858;2024-01-07T09:15:38;11.98;;;4.15;;
56265;SDS011;42174;50.936;6.858;2024-01-07T09:18:22;5.60;;;4.20;;
56265;SDS011;42174;50.936;6.858;2024-01-07T09:21:06;9.20;;;4.93;;
56265;SDS011;42174;50.936;6.858;2024-01-07T09:23:50;7.82;;;4.68;;
56265;SDS011;42174;50.936;6.858;2024-01-07T09:26:34;7.63;;;5.10;;
56265;SDS011;42174;50.936;6.858;2024-01-07T09:29:18;13.00;;;4.55;;
56265;SDS011;42174;50.936;6.858;2024-01-07T09:32:02;12.90;;;5.35;;
56265;SDS011;42174;50.936;6.858;2024-01-07T09:34:46;5.68;;;3.25;;
56265;SDS011;42174;50.936;6.858;2024-01-07T09:37:30;7.90;;;4.45;;
56265;SDS011;42174;50.936;6.858;2024-01-07T09:40:16;5.85;;;3.88;;
56265;SDS011;42174;50.936;6.858;2024-01-07T09:43:02;8.38;;;4.38;;
56265;SDS011;42174;50.936;6.858;2024-01-07T09:45:46;6.55;;;4.40;;
56265;SDS011;42174;50.936;6.858;2024-01-07T09:48:30;10.27;;;5.68;;
56265;SDS011;42174;50.936;6.858;2024-01-07T09:51:14;7.00;;;3.85;;
56265;SDS011;42174;50.936;6.858;2024-01-07T09:54:01;8.93;;;3.85;;
56265;SDS011;42174;50.936;6.858;2024-01-07T09:56:55;8.18;;;2.85;;
56265;SDS011;42174;50.936;6.858;2024-01-07T09:59:39;4.15;;;2.97;;
56265;SDS011;42174;50.936;6.858;2024-01-07T10:02:23;5.68;;;3.45;;
56265;SDS011;42174;50.936;6.858;2024-01-07T10:05:07;9.30;;;3.58;;
56265;SDS011;42174;50.936;6.858;2024-01-07T10:07:51;6.35;;;3.38;;
56265;SDS011;42174;50.936;6.858;2024-01-07T10:10:38;5.90;;;3.03;;
56265;SDS011;42174;50.936;6.858;2024-01-07T10:13:24;4.65;;;2.60;;
56265;SDS011;42174;50.936;6.858;2024-01-07T10:16:08;5.18;;;3.45;;
56265;SDS011;42174;50.936;6.858;2024-01-07T10:18:52;10.43;;;3.83;;
56265;SDS011;42174;50.936;6.858;2024-01-07T10:21:36;5.65;;;3.50;;
56265;SDS011;42174;50.936;6.858;2024-01-07T10:24:20;4.07;;;2.55;;
56265;SDS011;42174;50.936;6.858;2024-01-07T10:27:04;4.30;;;2.83;;
56265;SDS011;42174;50.936;6.858;2024-01-07T10:29:48;6.32;;;2.70;;
56265;SDS011;42174;50.936;6.858;2024-01-07T10:32:37;7.28;;;3.78;;
56265;SDS011;42174;50.936;6.858;2024-01-07T10:35:21;5.43;;;2.92;;
56265;SDS011;42174;50.936;6.858;2024-01-07T10:38:05;5.15;;;2.92;;
56265;SDS011;42174;50.936;6.858;2024-01-07T10:40:50;5.70;;;3.42;;
56265;SDS011;42174;50.936;6.858;2024-01-07T10:43:35;3.35;;;2.97;;
56265;SDS011;42174;50.936;6.858;2024-01-07T10:46:20;5.28;;;2.35;;
56265;SDS011;42174;50.936;6.858;2024-01-07T10:49:04;6.63;;;3.13;;
56265;SDS011;42174;50.936;6.858;2024-01-07T10:55:08;6.45;;;3.95;;
56265;SDS011;42174;50.936;6.858;2024-01-07T10:57:52;6.82;;;3.30;;
56265;SDS011;42174;50.936;6.858;2024-01-07T11:00:37;4.63;;;3.00;;
56265;SDS011;42174;50.936;6.858;2024-01-07T11:06:11;5.53;;;4.32;;
56265;SDS011;42174;50.936;6.858;2024-01-07T11:09:06;9.68;;;4.25;;
56265;SDS011;42174;50.936;6.858;2024-01-07T11:11:54;4.82;;;3.08;;
56265;SDS011;42174;50.936;6.858;2024-01-07T11:14:43;6.45;;;3.70;;
56265;SDS011;42174;50.936;6.858;2024-01-07T11:17:50;6.35;;;3.20;;
56265;SDS011;42174;50.936;6.858;2024-01-07T11:20:33;5.18;;;3.63;;
56265;SDS011;42174;50.936;6.858;2024-01-07T11:23:27;4.72;;;3.17;;
56265;SDS011;42174;50.936;6.858;2024-01-07T11:26:14;7.45;;;4.85;;
56265;SDS011;42174;50.936;6.858;2024-01-07T11:28:58;6.47;;;5.18;;
56265;SDS011;42174;50.936;6.858;2024-01-07T11:31:44;10.32;;;4.18;;
56265;SDS011;42174;50.936;6.858;2024-01-07T11:34:40;8.50;;;3.97;;
56265;SDS011;42174;50.936;6.858;2024-01-07T11:37:25;11.35;;;4.95;;
56265;SDS011;42174;50.936;6.858;2024-01-07T11:40:09;5.20;;;3.10;;
56265;SDS011;42174;50.936;6.858;2024-01-07T11:42:54;7.30;;;3.90;;
56265;SDS011;42174;50.936;6.858;2024-01-07T11:45:38;7.43;;;4.28;;
56265;SDS011;42174;50.936;6.858;2024-01-07T11:48:22;7.85;;;4.00;;
56265;SDS011;42174;50.936;6.858;2024-01-07T11:51:06;12.32;;;5.72;;
56265;SDS011;42174;50.936;6.858;2024-01-07T11:53:50;5.88;;;3.70;;
56265;SDS011;42174;50.936;6.858;2024-01-07T11:56:34;7.43;;;6.00;;
56265;SDS011;42174;50.936;6.858;2024-01-07T11:59:18;6.00;;;3.30;;
56265;SDS011;42174;50.936;6.858;2024-01-07T12:02:02;8.63;;;4.07;;
56265;SDS011;42174;50.936;6.858;2024-01-07T12:04:48;8.77;;;3.30;;
56265;SDS011;42174;50.936;6.858;2024-01-07T12:07:33;6.82;;;4.70;;
56265;SDS011;42174;50.936;6.858;2024-01-07T12:10:21;4.68;;;3.42;;
56265;SDS011;42174;50.936;6.858;2024-01-07T12:13:04;4.85;;;2.83;;
56265;SDS011;42174;50.936;6.858;2024-01-07T12:15:49;7.40;;;3.72;;
56265;SDS011;42174;50.936;6.858;2024-01-07T12:18:36;3.47;;;3.03;;
56265;SDS011;42174;50.936;6.858;2024-01-07T12:21:20;4.72;;;2.63;;
56265;SDS011;42174;50.936;6.858;2024-01-07T12:24:07;7.07;;;2.58;;
56265;SDS011;42174;50.936;6.858;2024-01-07T12:26:51;3.03;;;2.78;;
56265;SDS011;42174;50.936;6.858;2024-01-07T12:29:35;5.10;;;2.83;;
56265;SDS011;42174;50.936;6.858;2024-01-07T12:32:19;5.15;;;2.53;;
56265;SDS011;42174;50.936;6.858;2024-01-07T12:35:03;3.45;;;3.15;;
56265;SDS011;42174;50.936;6.858;2024-01-07T12:37:48;4.70;;;2.60;;
56265;SDS011;42174;50.936;6.858;2024-01-07T12:40:32;4.88;;;2.30;;
56265;SDS011;42174;50.936;6.858;2024-01-07T12:43:16;4.20;;;3.22;;
56265;SDS011;42174;50.936;6.858;2024-01-07T12:46:00;2.97;;;1.92;;
56265;SDS011;42174;50.936;6.858;2024-01-07T12:51:32;5.03;;;2.30;;
56265;SDS011;42174;50.936;6.858;2024-01-07T12:54:16;6.13;;;2.65;;
56265;SDS011;42174;50.936;6.858;2024-01-07T12:57:00;7.38;;;3.17;;
56265;SDS011;42174;50.936;6.858;2024-01-07T12:59:44;3.88;;;2.78;;
56265;SDS011;42174;50.936;6.858;2024-01-07T13:02:28;3.95;;;3.17;;
56265;SDS011;42174;50.936;6.858;2024-01-07T13:05:12;4.38;;;3.53;;
56265;SDS011;42174;50.936;6.858;2024-01-07T13:07:56;4.15;;;2.53;;
56265;SDS011;42174;50.936;6.858;2024-01-07T13:10:40;2.72;;;2.53;;
56265;SDS011;42174;50.936;6.858;2024-01-07T13:13:24;3.90;;;2.33;;
56265;SDS011;42174;50.936;6.858;2024-01-07T13:16:08;7.63;;;2.75;;
56265;SDS011;42174;50.936;6.858;2024-01-07T13:18:52;3.72;;;2.90;;
56265;SDS011;42174;50.936;6.858;2024-01-07T13:21:37;4.82;;;2.28;;
56265;SDS011;42174;50.936;6.858;2024-01-07T13:24:22;3.30;;;1.75;;
56265;SDS011;42174;50.936;6.858;2024-01-07T13:27:06;4.32;;;2.60;;
56265;SDS011;42174;50.936;6.858;2024-01-07T13:29:50;4.50;;;2.60;;
56265;SDS011;42174;50.936;6.858;2024-01-07T13:32:34;4.15;;;2.15;;
56265;SDS011;42174;50.936;6.858;2024-01-07T13:35:20;2.67;;;2.42;;
56265;SDS011;42174;50.936;6.858;2024-01-07T13:38:04;2.65;;;1.98;;
56265;SDS011;42174;50.936;6.858;2024-01-07T13:40:48;3.45;;;2.75;;
56265;SDS011;42174;50.936;6.858;2024-01-07T13:43:32;2.92;;;2.35;;
56265;SDS011;42174;50.936;6.858;2024-01-07T13:46:15;3.10;;;2.10;;
56265;SDS011;42174;50.936;6.858;2024-01-07T13:48:59;3.67;;;2.88;;
56265;SDS011;42174;50.936;6.858;2024-01-07T13:51:44;4.07;;;2.58;;
56265;SDS011;42174;50.936;6.858;2024-01-07T13:54:28;3.67;;;2.15;;
56265;SDS011;42174;50.936;6.858;2024-01-07T13:57:12;5.63;;;1.75;;
56265;SDS011;42174;50.936;6.858;2024-01-07T13:59:57;3.35;;;2.90;;
56265;SDS011;42174;50.936;6.858;2024-01-07T14:02:41;6.97;;;2.60;;
56265;SDS011;42174;50.936;6.858;2024-01-07T14:05:27;2.97;;;2.35;;
56265;SDS011;42174;50.936;6.858;2024-01-07T14:08:11;5.53;;;2.10;;
56265;SDS011;42174;50.936;6.858;2024-01-07T14:10:55;7.50;;;2.15;;
56265;SDS011;42174;50.936;6.858;2024-01-07T14:13:39;7.60;;;2.25;;
56265;SDS011;42174;50.936;6.858;2024-01-07T14:16:23;3.85;;;2.15;;
56265;SDS011;42174;50.936;6.858;2024-01-07T14:19:07;3.97;;;1.95;;
56265;SDS011;42174;50.936;6.858;2024-01-07T14:21:51;2.65;;;2.20;;
56265;SDS011;42174;50.936;6.858;2024-01-07T14:24:36;5.50;;;3.10;;
56265;SDS011;42174;50.936;6.858;2024-01-07T14:27:20;4.63;;;2.60;;
56265;SDS011;42174;50.936;6.858;2024-01-07T14:30:04;1.80;;;1.60;;
56265;SDS011;42174;50.936;6.858;2024-01-07T14:32:48;2.05;;;1.50;;
56265;SDS011;42174;50.936;6.858;2024-01-07T14:35:32;3.22;;;1.63;;
56265;SDS011;42174;50.936;6.858;2024-01-07T14:38:17;4.95;;;2.45;;
56265;SDS011;42174;50.936;6.858;2024-01-07T14:41:01;2.13;;;1.92;;
56265;SDS011;42174;50.936;6.858;2024-01-07T14:43:45;7.10;;;2.40;;
56265;SDS011;42174;50.936;6.858;2024-01-07T14:46:29;2.25;;;1.35;;
56265;SDS011;42174;50.936;6.858;2024-01-07T14:49:13;2.72;;;1.90;;
56265;SDS011;42174;50.936;6.858;2024-01-07T14:51:56;1.65;;;1.55;;
56265;SDS011;42174;50.936;6.858;2024-01-07T14:54:40;3.35;;;1.80;;
56265;SDS011;42174;50.936;6.858;2024-01-07T14:57:24;4.85;;;1.92;;
56265;SDS011;42174;50.936;6.858;2024-01-07T15:00:08;3.20;;;2.08;;
56265;SDS011;42174;50.936;6.858;2024-01-07T15:02:52;2.72;;;1.83;;
56265;SDS011;42174;50.936;6.858;2024-01-07T15:05:36;1.40;;;0.98;;
56265;SDS011;42174;50.936;6.858;2024-01-07T15:08:20;1.40;;;0.75;;
56265;SDS011;42174;50.936;6.858;2024-01-07T15:11:04;3.20;;;1.45;;
56265;SDS011;42174;50.936;6.858;2024-01-07T15:13:48;1.60;;;1.50;;
56265;SDS011;42174;50.936;6.858;2024-01-07T15:16:35;2.88;;;1.05;;
56265;SDS011;42174;50.936;6.858;2024-01-07T15:22:04;0.50;;;0.50;;
56265;SDS011;42174;50.936;6.858;2024-01-07T15:24:48;1.58;;;1.08;;
56265;SDS011;42174;50.936;6.858;2024-01-07T15:27:32;1.70;;;1.10;;
56265;SDS011;42174;50.936;6.858;2024-01-07T15:30:16;1.45;;;1.10;;
56265;SDS011;42174;50.936;6.858;2024-01-07T15:33:00;0.80;;;0.73;;
56265;SDS011;42174;50.936;6.858;2024-01-07T15:35:44;1.95;;;1.40;;
56265;SDS011;42174;50.936;6.858;2024-01-07T15:38:28;3.95;;;1.77;;
56265;SDS011;42174;50.936;6.858;2024-01-07T15:41:12;1.40;;;0.88;;
56265;SDS011;42174;50.936;6.858;2024-01-07T15:43:56;1.83;;;1.02;;
56265;SDS011;42174;50.936;6.858;2024-01-07T15:46:40;1.17;;;1.13;;
56265;SDS011;42174;50.936;6.858;2024-01-07T15:49:24;2.00;;;1.90;;
56265;SDS011;42174;50.936;6.858;2024-01-07T15:52:08;1.80;;;0.93;;
56265;SDS011;42174;50.936;6.858;2024-01-07T15:54:52;1.33;;;1.23;;
56265;SDS011;42174;50.936;6.858;2024-01-07T15:57:36;1.92;;;1.65;;
56265;SDS011;42174;50.936;6.858;2024-01-07T16:00:20;2.30;;;1.00;;
56265;SDS011;42174;50.936;6.858;2024-01-07T16:03:16;3.30;;;1.95;;
56265;SDS011;42174;50.936;6.858;2024-01-07T16:06:00;1.75;;;1.65;;
56265;SDS011;42174;50.936;6.858;2024-01-07T16:08:44;2.88;;;1.65;;
56265;SDS011;42174;50.936;6.858;2024-01-07T16:11:28;1.20;;;1.13;;
56265;SDS011;42174;50.936;6.858;2024-01-07T16:14:13;1.23;;;0.90;;
56265;SDS011;42174;50.936;6.858;2024-01-07T16:16:56;1.45;;;1.15;;
56265;SDS011;42174;50.936;6.858;2024-01-07T16:19:40;1.20;;;1.15;;
56265;SDS011;42174;50.936;6.858;2024-01-07T16:22:24;2.97;;;1.40;;
56265;SDS011;42174;50.936;6.858;2024-01-07T16:25:09;0.85;;;0.85;;
56265;SDS011;42174;50.936;6.858;2024-01-07T16:27:53;0.90;;;0.90;;
56265;SDS011;42174;50.936;6.858;2024-01-07T16:30:38;1.67;;;1.13;;
56265;SDS011;42174;50.936;6.858;2024-01-07T16:33:22;2.80;;;1.33;;
56265;SDS011;42174;50.936;6.858;2024-01-07T16:36:07;0.82;;;0.73;;
56265;SDS011;42174;50.936;6.858;2024-01-07T16:38:52;0.77;;;0.77;;
56265;SDS011;42174;50.936;6.858;2024-01-07T16:41:36;1.30;;;0.73;;